NEODyS-2

Near Earth Objects - Dynamic Site
NEODyS ∴ Observatories ∴ Site 691 ∴ Obs & residuals
Contact »
691  ▹ 
OBSERVATIONS AND RESIDUALS

691-Steward Observatory, Kitt Peak-Spacewatch

Detections | Residuals | Detections & Residuals

[1-200] [201-400] [401-600] [601-800] [801-1000] [1001-1200] [1201-1400] [1401-1600] [1601-1800] [1801-2000] [2001-2200] [2201-2400] [2401-2600] [2601-2800] [2801-3000] [3001-3200] [3201-3400] [3401-3600] [3601-3800] [3801-4000] [4001-4200] [4201-4400] [4401-4600] [4601-4800] [4801-5000] [5001-5200] [5201-5400] [5401-5600] [5601-5800] [5801-6000] [6001-6200] [6201-6400] [6401-6600] [6601-6800] [6801-7000] [7001-7200] [7201-7400] [7401-7600] [7601-7800] [7801-8000] [8001-8200] [8201-8400] [8401-8600] [8601-8800] [8801-9000] [9001-9200] [9201-9400] [9401-9600] [9601-9800] [9801-10000] [10001-10200] [10201-10400] [10401-10600] [10601-10800] [10801-11000] [11001-11200] [11201-11400] [11401-11600] [11601-11800] [11801-12000] [12001-12200] [12201-12400] [12401-12600] [12601-12800] [12801-13000] [13001-13200] [13201-13400] [13401-13600] [13601-13800] [13801-14000] [14001-14200] [14201-14400] [14401-14600] [14601-14800] [14801-15000] [15001-15200] [15201-15400] [15401-15600] [15601-15800] [15801-16000] [16001-16200] [16201-16400] [16401-16600] [16601-16800] [16801-17000] [17001-17200] [17201-17400] [17401-17600] [17601-17800] [17801-18000] [18001-18200] [18201-18400] [18401-18600] [18601-18800] [18801-19000] [19001-19200] [19201-19400] [19401-19600] [19601-19800] [19801-20000] [20001-20200] [20201-20400] [20401-20600] [20601-20800] [20801-21000] [21001-21200] [21201-21400] [21401-21600] [21601-21800] [21801-22000] [22001-22200] [22201-22400] [22401-22600] [22601-22800] [22801-23000] [23001-23200] [23201-23400] [23401-23600] [23601-23800] [23801-24000] [24001-24200] [24201-24400] [24401-24600] [24601-24800] [24801-25000] [25001-25200] [25201-25400] [25401-25600] [25601-25800] [25801-26000] [26001-26200] [26201-26400] [26401-26600] [26601-26800] [26801-27000] [27001-27200] [27201-27400] [27401-27600] [27601-27800] [27801-28000] [28001-28200] [28201-28400] [28401-28600] [28601-28800] [28801-29000] [29001-29200] [29201-29400] [29401-29600] [29601-29800] [29801-30000] [30001-30200] [30201-30400] [30401-30600] [30601-30800] [30801-31000] [31001-31200] [31201-31400] [31401-31600] [31601-31800] [31801-32000] [32001-32200] [32201-32400] [32401-32600] [32601-32800] [32801-33000] [33001-33200] [33201-33400] [33401-33600] [33601-33800] [33801-34000] [34001-34200] [34201-34400] [34401-34600] [34601-34800] [34801-35000] [35001-35200] [35201-35400] [35401-35600] [35601-35800] [35801-36000] [36001-36200] [36201-36400] [36401-36600] [36601-36800] [36801-37000] [37001-37200] [37201-37400] [37401-37600] [37601-37800] [37801-38000] [38001-38200] [38201-38400] [38401-38600] [38601-38800] [38801-39000] [39001-39200] [39201-39400] [39401-39600] [39601-39800] [39801-40000] [40001-40200] [40201-40400] [40401-40600] [40601-40800] [40801-41000] [41001-41200] [41201-41400] [41401-41600] [41601-41800] [41801-42000] [42001-42200] [42201-42400] [42401-42600] [42601-42800] [42801-43000] [43001-43200] [43201-43400] [43401-43600] [43601-43800] [43801-44000] [44001-44200] [44201-44400] [44401-44600] [44601-44800] [44801-45000] [45001-45200] [45201-45400] [45401-45600] [45601-45800] [45801-46000] [46001-46200] [46201-46400] [46401-46600] [46601-46800] [46801-47000] [47001-47200] [47201-47400] [47401-47600] [47601-47800] [47801-48000] [48001-48200] [48201-48400] [48401-48600] [48601-48800] [48801-49000] [49001-49200] [49201-49400] [49401-49600] [49601-49800] [49801-50000] [50001-50200] [50201-50388]

Designation T Tech N Date Right Ascension Declination Apparent Magnitude Star Catalog Site code χ Used A Used M
yr-mo-day precision hr:min:sec precision rms F bias residual deg min sec precision rms F bias residual mag/col rms residual
2016CQ195 O C H 2016-02-16.49999 1.000E-05 11:12:11.960 1.500E-01 0.500 F 0.124 -0.567 -01° 19' 17.20" 1.000E-01 0.500 F 0.016 -0.446 21.3 V 0.70 0.00 o 691 1.45 Yes Yes
2016CQ195 O C H 2016-02-16.50317 1.000E-05 11:12:11.610 1.500E-01 0.500 F 0.124 -1.291 -01° 19' 17.40" 1.000E-01 0.500 F 0.016 -0.036 21.2 V 0.70 -0.10 o 691 2.59 Yes Yes
2013LW28 O C m 2016-02-17.10605 1.000E-05 03:00:58.630 1.500E-01 0.500 F -0.386 -3.066 -07° 16' 12.20" 1.000E-01 0.500 F 0.218 -1.681 20.5 V 0.70 -0.20 o 691 5.58 No Yes
2013LW28 O C m 2016-02-17.11061 1.000E-05 03:01:00.310 1.500E-01 0.500 F -0.386 0.266 -07° 15' 54.20" 1.000E-01 0.500 F 0.218 0.504 20.8 V 0.70 0.10 o 691 1.53 Yes Yes
2013LW28 O C m 2016-02-17.11518 1.000E-05 03:01:01.350 1.500E-01 0.500 F -0.386 -5.975 -07° 15' 35.70" 1.000E-01 0.500 F 0.218 3.155 o 691 12.26 No No
2015TJ1 O C m 2016-02-17.12148 1.000E-05 03:06:02.530 1.500E-01 0.500 F -0.353 -2.023 -00° 57' 41.80" 1.000E-01 0.500 F 0.162 0.560 20.5 V 0.70 -0.12 o 691 4.13 No Yes
2015TJ1 O C m 2016-02-17.12697 1.000E-05 03:06:04.830 1.500E-01 0.500 F -0.353 -1.272 -00° 57' 49.90" 1.000E-01 0.500 F 0.162 0.398 20.5 V 0.70 -0.12 o 691 2.71 Yes Yes
2015TJ1 O C m 2016-02-17.13246 1.000E-05 03:06:07.100 1.500E-01 0.500 F -0.353 -1.042 -00° 57' 58.40" 1.000E-01 0.500 F 0.162 -0.164 20.7 V 0.70 0.08 o 691 2.13 Yes Yes
2007BG O C m 2016-02-17.14517 1.000E-05 03:13:28.690 1.500E-01 0.500 F -0.308 -1.232 -01° 06' 58.10" 1.000E-01 0.500 F 0.222 -0.929 20.8 V 0.70 -0.08 o 691 3.09 Yes Yes
2007BG O C m 2016-02-17.15894 1.000E-05 03:13:31.250 1.500E-01 0.500 F -0.308 -0.461 -01° 06' 31.10" 1.000E-01 0.500 F 0.222 -0.414 20.7 V 0.70 -0.18 o 691 1.24 Yes Yes
2016AF193 O C m 2016-02-17.16749 1.000E-05 07:17:02.660 1.500E-01 0.500 F 0.039 -0.177 -27° 20' 32.30" 1.000E-01 0.500 F -0.076 -1.102 20.4 V 0.70 0.43 o 691 2.28 Yes Yes
2016AF193 O C m 2016-02-17.17044 1.000E-05 07:17:01.520 1.500E-01 0.500 F 0.039 0.337 -27° 20' 31.10" 1.000E-01 0.500 F -0.076 -1.527 20.5 V 0.70 0.53 o 691 3.07 No Yes
2016AF193 O C m 2016-02-17.17339 1.000E-05 07:17:00.330 1.500E-01 0.500 F 0.039 0.188 -27° 20' 29.70" 1.000E-01 0.500 F -0.076 -1.761 20.1 V 0.70 0.13 o 691 3.48 No Yes
2016CC193 O C H 2016-02-17.19595 1.000E-05 08:17:18.630 1.500E-01 0.500 F -0.038 -0.240 +15° 53' 22.00" 1.000E-01 0.500 F 0.159 -0.549 20.2 V 0.70 0.09 o 691 1.23 Yes Yes
2016CC193 O C H 2016-02-17.19913 1.000E-05 08:17:18.510 1.500E-01 0.500 F -0.038 -0.256 +15° 53' 44.10" 1.000E-01 0.500 F 0.159 1.389 20.2 V 0.70 0.09 o 691 2.88 Yes Yes
2016CC193 O C H 2016-02-17.20231 1.000E-05 08:17:18.460 1.500E-01 0.500 F -0.038 0.742 +15° 54' 03.10" 1.000E-01 0.500 F 0.159 0.228 o 691 1.59 Yes No
2016CW193 O C m 2016-02-17.20849 1.000E-05 08:33:10.000 1.500E-01 0.500 F 0.038 0.098 +00° 23' 22.20" 1.000E-01 0.500 F 0.190 -0.131 20.6 V 0.70 -0.10 o 691 0.33 Yes Yes
2016CW193 O C m 2016-02-17.21375 1.000E-05 08:33:10.350 1.500E-01 0.500 F 0.038 -0.115 +00° 23' 35.00" 1.000E-01 0.500 F 0.190 0.449 20.8 V 0.70 0.10 o 691 0.93 Yes Yes
2016CW193 O C m 2016-02-17.21901 1.000E-05 08:33:10.730 1.500E-01 0.500 F 0.038 0.129 +00° 23' 47.40" 1.000E-01 0.500 F 0.190 0.634 20.6 V 0.70 -0.10 o 691 1.30 Yes Yes
2016DB O C m 2016-02-17.22551 1.000E-05 08:38:57.730 1.500E-01 0.500 F 0.026 -0.332 +22° 47' 51.00" 1.000E-01 0.500 F 0.230 0.158 19.8 V 0.70 0.14 o 691 0.78 Yes Yes
2016DB O C m 2016-02-17.22800 1.000E-05 08:38:56.750 1.500E-01 0.500 F 0.026 -0.809 +22° 48' 13.00" 1.000E-01 0.500 F 0.230 1.088 19.8 V 0.70 0.14 o 691 2.87 Yes Yes
2016DB O C m 2016-02-17.24209 1.000E-05 08:38:51.440 1.500E-01 0.500 F 0.026 -0.196 +22° 50' 09.30" 1.000E-01 0.500 F 0.230 0.343 o 691 0.85 Yes No
2016DX30 O C m 2016-02-17.24751 1.000E-05 09:03:37.580 1.500E-01 0.500 F 0.087 -0.912 +19° 58' 23.70" 1.000E-01 0.500 F 0.215 -2.451 21.3 V 0.70 0.27 o 691 5.14 No Yes
2016DX30 O C m 2016-02-17.25896 1.000E-05 09:03:35.360 1.500E-01 0.500 F 0.087 -1.091 +19° 57' 18.40" 1.000E-01 0.500 F 0.215 -2.581 21.2 V 0.70 0.16 o 691 5.50 No Yes
2016CK248 O C m 2016-02-17.30427 1.000E-05 09:25:10.120 1.500E-01 0.500 F 0.190 -0.180 +05° 07' 52.30" 1.000E-01 0.500 F 0.202 -0.193 20.7 V 0.70 0.10 o 691 0.55 Yes Yes
2016CK248 O C m 2016-02-17.30838 1.000E-05 09:25:09.310 1.500E-01 0.500 F 0.190 -0.844 +05° 07' 17.00" 1.000E-01 0.500 F 0.202 -2.044 20.7 V 0.70 0.10 o 691 4.29 No Yes
2016CK248 O C m 2016-02-17.31248 1.000E-05 09:25:08.480 1.500E-01 0.500 F 0.190 -1.832 +05° 06' 41.00" 1.000E-01 0.500 F 0.202 -4.629 20.6 V 0.70 0.00 o 691 9.67 No Yes
2016CP247 O C H 2016-02-17.31722 1.000E-05 09:43:20.610 1.500E-01 0.500 F 0.077 0.454 -07° 44' 30.10" 1.000E-01 0.500 F -0.033 0.091 21.4 V 0.70 0.23 o 691 0.94 Yes Yes
2016CP247 O C H 2016-02-17.32132 1.000E-05 09:43:21.030 1.500E-01 0.500 F 0.077 -1.572 -07° 44' 28.40" 1.000E-01 0.500 F -0.033 -0.553 21.4 V 0.70 0.23 o 691 3.30 No Yes
2016CP247 O C H 2016-02-17.33042 1.000E-05 09:43:22.190 1.500E-01 0.500 F 0.077 -2.696 -07° 44' 24.50" 1.000E-01 0.500 F -0.033 -1.873 o 691 6.51 No No
2016CO247 O C m 2016-02-17.33973 1.000E-05 09:42:59.850 1.500E-01 0.500 F 0.072 -1.427 -18° 29' 45.10" 1.000E-01 0.500 F -0.142 -0.474 21.2 V 0.70 -0.27 o 691 3.03 Yes Yes
2016CO247 O C m 2016-02-17.34499 1.000E-05 09:42:58.920 1.500E-01 0.500 F 0.072 -2.397 -18° 29' 41.10" 1.000E-01 0.500 F -0.142 1.058 21.3 V 0.70 -0.17 o 691 5.18 No Yes
2016CO247 O C m 2016-02-17.35026 1.000E-05 09:42:58.180 1.500E-01 0.500 F 0.072 -0.645 -18° 29' 38.40" 1.000E-01 0.500 F -0.142 1.280 21.2 V 0.70 -0.27 o 691 2.89 Yes Yes
2016DG O C m 2016-02-17.35568 1.000E-05 10:03:10.200 1.500E-01 0.500 F 0.213 0.626 +27° 11' 37.10" 1.000E-01 0.500 F 0.305 -0.197 20.3 V 0.70 -0.07 o 691 1.35 Yes Yes
2016DG O C m 2016-02-17.35793 1.000E-05 10:03:14.530 1.500E-01 0.500 F 0.213 0.854 +27° 12' 11.70" 1.000E-01 0.500 F 0.305 0.188 20.5 V 0.70 0.13 o 691 1.82 Yes Yes
2016DG O C m 2016-02-17.36018 1.000E-05 10:03:18.650 1.500E-01 0.500 F 0.213 -1.711 +27° 12' 45.20" 1.000E-01 0.500 F 0.305 -0.469 20.4 V 0.70 0.03 o 691 3.42 No Yes
2016DF O C m 2016-02-17.36363 1.000E-05 10:11:58.940 1.500E-01 0.500 F 0.227 -0.173 +18° 36' 59.60" 1.000E-01 0.500 F 0.297 -0.365 20.1 V 0.70 0.08 o 691 0.82 Yes Yes
2016DF O C m 2016-02-17.36612 1.000E-05 10:11:59.440 1.500E-01 0.500 F 0.227 0.210 +18° 37' 21.30" 1.000E-01 0.500 F 0.297 0.575 20.1 V 0.70 0.08 o 691 1.25 Yes Yes
2016CE30 O C H 2016-02-17.38166 1.000E-05 10:07:16.310 1.500E-01 0.500 F 0.188 -0.896 +18° 08' 40.60" 1.000E-01 0.500 F 0.222 -0.331 20.8 V 0.70 -0.12 o 691 1.92 Yes Yes
2016CE30 O C H 2016-02-17.38507 1.000E-05 10:07:15.890 1.500E-01 0.500 F 0.188 0.009 +18° 08' 39.30" 1.000E-01 0.500 F 0.222 -0.083 20.7 V 0.70 -0.22 o 691 0.17 Yes Yes
2016CE30 O C H 2016-02-17.38848 1.000E-05 10:07:15.370 1.500E-01 0.500 F 0.188 -0.514 +18° 08' 37.80" 1.000E-01 0.500 F 0.222 -0.033 21.0 V 0.70 0.08 o 691 1.03 Yes Yes
2016CS195 O C m 2016-02-17.42614 1.000E-05 10:33:13.360 1.500E-01 0.500 F 0.098 0.148 +26° 49' 23.70" 1.000E-01 0.500 F 0.275 -0.412 21.5 V 0.70 0.09 o 691 0.95 Yes Yes
2016CS195 O C m 2016-02-17.42932 1.000E-05 10:33:12.680 1.500E-01 0.500 F 0.098 -0.858 +26° 49' 18.10" 1.000E-01 0.500 F 0.275 -0.280 21.8 V 0.70 0.39 o 691 1.98 Yes Yes
2016CS195 O C m 2016-02-17.43256 1.000E-05 10:33:12.180 1.500E-01 0.500 F 0.098 0.694 +26° 49' 12.30" 1.000E-01 0.500 F 0.275 -0.237 21.7 V 0.70 0.29 o 691 1.59 Yes Yes
2016CY193 O C H 2016-02-17.45934 1.000E-05 10:53:05.430 1.500E-01 0.500 F 0.234 -2.137 -12° 08' 12.10" 1.000E-01 0.500 F 0.063 -0.185 20.9 V 0.70 0.38 o 691 4.16 No Yes
2016CY193 O C H 2016-02-17.46136 1.000E-05 10:53:06.540 1.500E-01 0.500 F 0.234 -1.353 -12° 08' 11.00" 1.000E-01 0.500 F 0.063 -0.353 20.5 V 0.70 -0.02 o 691 2.89 Yes Yes
2016CY193 O C H 2016-02-17.46339 1.000E-05 10:53:07.670 1.500E-01 0.500 F 0.234 -0.362 -12° 08' 09.40" 1.000E-01 0.500 F 0.063 -0.030 20.8 V 0.70 0.28 o 691 0.75 Yes Yes
2016CJ195 O C H 2016-02-17.46791 1.000E-05 10:44:57.890 1.500E-01 0.500 F 0.196 0.241 +29° 09' 51.40" 1.000E-01 0.500 F 0.319 0.110 o 691 0.53 Yes No
2016CJ195 O C H 2016-02-17.47178 1.000E-05 10:44:57.320 1.500E-01 0.500 F 0.196 -0.531 +29° 09' 51.10" 1.000E-01 0.500 F 0.319 -0.029 o 691 1.07 Yes No
2016CJ195 O C H 2016-02-17.47566 1.000E-05 10:44:56.880 1.500E-01 0.500 F 0.196 0.413 +29° 09' 50.40" 1.000E-01 0.500 F 0.319 -0.566 o 691 1.41 Yes No
2016BC14 O C H 2016-02-17.53497 1.000E-05 15:23:46.070 1.500E-01 0.500 F 0.183 0.340 +13° 08' 26.80" 1.000E-01 0.500 F 0.166 0.019 18.9 V 0.70 -0.42 o 691 0.68 Yes Yes
2016BC14 O C H 2016-02-17.53838 1.000E-05 15:23:46.210 1.500E-01 0.500 F 0.183 -0.355 +13° 08' 23.20" 1.000E-01 0.500 F 0.166 -0.459 19.1 V 0.70 -0.22 o 691 1.16 Yes Yes
2016BC14 O C H 2016-02-17.54180 1.000E-05 15:23:46.400 1.500E-01 0.500 F 0.183 -0.327 +13° 08' 20.30" 1.000E-01 0.500 F 0.166 -0.221 19.2 V 0.70 -0.12 o 691 0.79 Yes Yes
2015TJ1 O C m 2016-02-18.13449 1.000E-05 03:13:41.370 1.500E-01 0.500 F -0.308 -2.159 -01° 22' 49.60" 1.000E-01 0.500 F 0.222 0.014 20.8 V 0.70 0.26 o 691 4.26 No Yes
2015TJ1 O C m 2016-02-18.13975 1.000E-05 03:13:43.550 1.500E-01 0.500 F -0.308 -3.375 -01° 22' 57.00" 1.000E-01 0.500 F 0.222 0.599 20.4 V 0.70 -0.14 o 691 6.75 No Yes
2015TJ1 O C m 2016-02-18.14501 1.000E-05 03:13:45.900 1.500E-01 0.500 F -0.308 -2.115 -01° 23' 04.80" 1.000E-01 0.500 F 0.222 0.784 20.6 V 0.70 0.06 o 691 4.43 No Yes
2007BG O C m 2016-02-18.15155 1.000E-05 03:16:35.410 1.500E-01 0.500 F -0.314 0.004 -00° 34' 53.30" 1.000E-01 0.500 F 0.193 -0.354 21.0 V 0.70 0.11 o 691 0.71 Yes Yes
2007BG O C m 2016-02-18.15728 1.000E-05 03:16:36.440 1.500E-01 0.500 F -0.314 -0.087 -00° 34' 42.00" 1.000E-01 0.500 F 0.193 0.049 21.1 V 0.70 0.21 o 691 0.20 Yes Yes
2007BG O C m 2016-02-18.16300 1.000E-05 03:16:37.550 1.500E-01 0.500 F -0.314 1.038 -00° 34' 29.90" 1.000E-01 0.500 F 0.193 1.271 20.6 V 0.70 -0.29 o 691 3.27 No Yes
2016CP247 O C m 2016-02-18.29487 1.000E-05 09:45:52.030 1.500E-01 0.500 F 0.077 -0.155 -07° 34' 46.60" 1.000E-01 0.500 F -0.033 -0.453 21.1 V 0.70 -0.04 o 691 0.96 Yes Yes
2016CP247 O C m 2016-02-18.30013 1.000E-05 09:45:52.800 1.500E-01 0.500 F 0.077 0.444 -07° 34' 43.60" 1.000E-01 0.500 F -0.033 -0.730 21.0 V 0.70 -0.14 o 691 1.72 Yes Yes
2016CP247 O C m 2016-02-18.30539 1.000E-05 09:45:53.610 1.500E-01 0.500 F 0.077 1.639 -07° 34' 39.50" 1.000E-01 0.500 F -0.033 0.085 o 691 3.25 No No
2015NS13 O C m 2016-02-18.41270 1.000E-05 12:03:16.460 1.500E-01 0.500 F 0.376 -0.230 -27° 12' 56.70" 1.000E-01 0.500 F 0.213 -0.310 20.3 V 0.70 -0.49 o 691 0.78 Yes Yes
2015NS13 O C m 2016-02-18.41657 1.000E-05 12:03:15.890 1.500E-01 0.500 F 0.376 0.035 -27° 12' 59.50" 1.000E-01 0.500 F 0.213 -0.494 20.5 V 0.70 -0.29 o 691 0.99 Yes Yes
2015NS13 O C m 2016-02-18.42044 1.000E-05 12:03:15.300 1.500E-01 0.500 F 0.376 0.034 -27° 13' 01.70" 1.000E-01 0.500 F 0.213 -0.082 20.6 V 0.70 -0.19 o 691 0.18 Yes Yes
2016BZ14 O C H 2016-02-25.10818 1.000E-05 03:40:29.280 1.500E-01 0.500 F -0.053 -0.275 +26° 23' 49.30" 1.000E-01 0.500 F 0.156 -0.198 18.8 V 0.70 0.40 o 691 0.68 Yes Yes
2016BZ14 O C H 2016-02-25.11141 1.000E-05 03:40:28.740 1.500E-01 0.500 F -0.053 -0.331 +26° 24' 17.00" 1.000E-01 0.500 F 0.156 0.310 19.0 V 0.70 0.60 o 691 0.94 Yes Yes
2016BZ14 O C H 2016-02-25.11464 1.000E-05 03:40:28.210 1.500E-01 0.500 F -0.053 -0.257 +26° 24' 43.60" 1.000E-01 0.500 F 0.156 -0.277 19.0 V 0.70 0.60 o 691 0.76 Yes Yes
1998OR2 O C H 2016-02-25.11754 1.000E-05 03:41:35.650 1.500E-01 0.500 F -0.118 0.415 +25° 13' 06.00" 1.000E-01 0.500 F 0.222 -0.668 o 691 1.57 Yes No
1998OR2 O C H 2016-02-25.12293 1.000E-05 03:41:35.970 1.500E-01 0.500 F -0.118 0.578 +25° 13' 06.70" 1.000E-01 0.500 F 0.222 -0.546 o 691 1.59 Yes No
1998OR2 O C H 2016-02-25.12832 1.000E-05 03:41:36.270 1.500E-01 0.500 F -0.118 0.467 +25° 13' 07.00" 1.000E-01 0.500 F 0.222 -0.821 o 691 1.89 Yes No
2003AL18 O C 2016-02-25.13185 1.000E-05 04:35:00.090 1.500E-01 0.500 F -0.179 -0.181 +27° 48' 58.20" 1.000E-01 0.500 F 0.179 -0.144 19.7 V 0.70 0.09 o 691 0.46 Yes Yes
2016CL32 O C H 2016-02-25.13185 1.000E-05 04:37:46.730 1.500E-01 0.500 F -0.116 1.125 +28° 22' 18.10" 1.000E-01 0.500 F 0.219 -0.665 20.0 V 0.70 0.08 o 691 2.62 Yes Yes
2003AL18 O C 2016-02-25.13554 1.000E-05 04:35:00.400 1.500E-01 0.500 F -0.179 -0.134 +27° 48' 53.90" 1.000E-01 0.500 F 0.179 -0.113 19.8 V 0.70 0.19 o 691 0.35 Yes Yes
2016CL32 O C H 2016-02-25.13554 1.000E-05 04:37:48.190 1.500E-01 0.500 F -0.116 0.100 +28° 22' 27.60" 1.000E-01 0.500 F 0.219 -0.002 20.0 V 0.70 0.08 o 691 0.20 Yes Yes
2003AL18 O C 2016-02-25.13923 1.000E-05 04:35:00.710 1.500E-01 0.500 F -0.179 -0.091 +27° 48' 49.50" 1.000E-01 0.500 F 0.179 -0.180 19.8 V 0.70 0.19 o 691 0.40 Yes Yes
2016CL32 O C H 2016-02-25.13923 1.000E-05 04:37:49.800 1.500E-01 0.500 F -0.116 1.052 +28° 22' 38.00" 1.000E-01 0.500 F 0.219 1.568 o 691 3.76 No No
2016CA136 O C H 2016-02-25.14291 1.000E-05 05:33:09.660 1.500E-01 0.500 F -0.023 0.216 +21° 00' 56.60" 1.000E-01 0.500 F 0.218 1.024 o 691 2.10 Yes No
2016CA136 O C H 2016-02-25.15168 1.000E-05 05:33:11.870 1.500E-01 0.500 F -0.023 1.748 +21° 00' 57.10" 1.000E-01 0.500 F 0.218 -0.793 o 691 3.83 No No
2016CY135 O C H 2016-02-25.17202 1.000E-05 06:42:06.060 1.500E-01 0.500 F -0.137 0.044 +18° 31' 42.10" 1.000E-01 0.500 F 0.219 0.156 o 691 0.33 Yes No
2016CY135 O C H 2016-02-25.17617 1.000E-05 06:42:05.050 1.500E-01 0.500 F -0.137 0.658 +18° 31' 43.50" 1.000E-01 0.500 F 0.219 -0.536 o 691 1.70 Yes No
1999JV6 O C H 2016-02-25.18735 1.000E-05 07:01:58.080 1.500E-01 0.500 F -0.197 -0.051 +29° 20' 01.40" 1.000E-01 0.500 F 0.267 -0.043 20.0 V 0.70 0.26 o 691 0.13 Yes Yes
1999JV6 O C H 2016-02-25.19215 1.000E-05 07:01:58.400 1.500E-01 0.500 F -0.197 -0.028 +29° 20' 02.10" 1.000E-01 0.500 F 0.267 -0.085 20.1 V 0.70 0.36 o 691 0.18 Yes Yes
1999JV6 O C H 2016-02-25.19695 1.000E-05 07:01:58.720 1.500E-01 0.500 F -0.197 -0.009 +29° 20' 02.80" 1.000E-01 0.500 F 0.267 -0.117 20.2 V 0.70 0.46 o 691 0.23 Yes Yes
2009XE11 O C H 2016-02-25.22627 1.000E-05 06:16:04.300 1.500E-01 0.500 F 0.028 0.090 +30° 27' 52.90" 1.000E-01 0.500 F 0.229 0.440 20.5 V 0.70 0.11 o 691 0.91 Yes Yes
2009XE11 O C H 2016-02-25.24154 1.000E-05 06:16:04.150 1.500E-01 0.500 F 0.028 0.354 +30° 27' 56.40" 1.000E-01 0.500 F 0.229 -0.050 20.5 V 0.70 0.11 o 691 0.73 Yes Yes
2014EK24 O C H 2016-02-25.25977 1.000E-05 09:06:51.630 1.500E-01 0.500 F 0.033 -0.145 +29° 59' 18.70" 1.000E-01 0.500 F 0.389 0.028 18.3 V 0.70 0.59 o 691 0.30 Yes Yes
2014EK24 O C H 2016-02-25.26277 1.000E-05 09:06:50.660 1.500E-01 0.500 F 0.033 -0.340 +29° 58' 55.10" 1.000E-01 0.500 F 0.389 -0.408 17.9 V 0.70 0.19 o 691 1.07 Yes Yes
2014EK24 O C H 2016-02-25.26577 1.000E-05 09:06:49.660 1.500E-01 0.500 F 0.033 -0.930 +29° 58' 31.90" 1.000E-01 0.500 F 0.389 -0.414 17.8 V 0.70 0.09 o 691 2.05 Yes Yes
2010GE25 O C H 2016-02-25.26973 1.000E-05 10:12:22.010 1.500E-01 0.500 F 0.071 0.276 -17° 30' 59.50" 1.000E-01 0.500 F 0.051 0.341 18.7 V 0.70 0.27 o 691 0.89 Yes Yes
2010GE25 O C H 2016-02-25.27321 1.000E-05 10:12:21.270 1.500E-01 0.500 F 0.071 -0.037 -17° 31' 23.40" 1.000E-01 0.500 F 0.051 -0.090 19.0 V 0.70 0.57 o 691 0.20 Yes Yes
2010GE25 O C H 2016-02-25.27667 1.000E-05 10:12:20.550 1.500E-01 0.500 F 0.071 -0.117 -17° 31' 46.40" 1.000E-01 0.500 F 0.051 0.240 18.7 V 0.70 0.27 o 691 0.54 Yes Yes
2016BC14 O C H 2016-02-25.42779 1.000E-05 15:34:05.480 1.500E-01 0.500 F 0.172 -0.442 +10° 45' 20.70" 1.000E-01 0.500 F 0.318 1.229 o 691 2.62 Yes No
2016BC14 O C H 2016-02-25.43241 1.000E-05 15:34:05.770 1.500E-01 0.500 F 0.172 -0.151 +10° 45' 13.60" 1.000E-01 0.500 F 0.318 -0.077 19.4 V 0.70 0.57 o 691 0.34 Yes Yes
2016BC14 O C H 2016-02-25.43706 1.000E-05 15:34:06.050 1.500E-01 0.500 F 0.172 -0.002 +10° 45' 07.60" 1.000E-01 0.500 F 0.318 -0.235 19.5 V 0.70 0.67 o 691 0.47 Yes Yes
2016CY135 O C H 2016-02-26.15046 1.000E-05 06:38:28.060 1.500E-01 0.500 F -0.136 0.473 +18° 40' 14.10" 1.000E-01 0.500 F 0.220 -1.332 o 691 2.83 Yes No
2016CY135 O C H 2016-02-26.15462 1.000E-05 06:38:26.950 1.500E-01 0.500 F -0.136 0.256 +18° 40' 16.90" 1.000E-01 0.500 F 0.220 -0.754 o 691 1.60 Yes No
2016CY135 O C H 2016-02-26.15877 1.000E-05 06:38:25.900 1.500E-01 0.500 F -0.136 0.857 +18° 40' 19.10" 1.000E-01 0.500 F 0.220 -0.752 o 691 2.29 Yes No
2016CS246 O C H 2016-02-26.16626 1.000E-05 05:36:23.210 1.500E-01 0.500 F -0.215 -0.684 +13° 26' 01.30" 1.000E-01 0.500 F 0.152 0.261 21.1 V 0.70 0.52 o 691 1.48 Yes Yes
2016CS246 O C H 2016-02-26.17019 1.000E-05 05:36:23.510 1.500E-01 0.500 F -0.215 0.440 +13° 26' 20.20" 1.000E-01 0.500 F 0.152 1.643 21.1 V 0.70 0.52 o 691 3.30 No Yes
1999JV6 O C H 2016-02-26.17528 1.000E-05 07:03:15.360 1.500E-01 0.500 F -0.197 0.156 +29° 22' 29.90" 1.000E-01 0.500 F 0.267 0.184 20.5 V 0.70 0.69 o 691 0.48 Yes Yes
1999JV6 O C H 2016-02-26.17990 1.000E-05 07:03:15.670 1.500E-01 0.500 F -0.197 0.094 +29° 22' 30.00" 1.000E-01 0.500 F 0.267 -0.346 20.7 V 0.70 0.89 o 691 0.71 Yes Yes
1999JV6 O C H 2016-02-26.18452 1.000E-05 07:03:15.980 1.500E-01 0.500 F -0.197 0.031 +29° 22' 30.70" 1.000E-01 0.500 F 0.267 -0.265 20.9 V 0.70 1.09 o 691 0.53 Yes Yes
2016CN247 O C H 2016-02-26.21026 1.000E-05 09:38:48.020 1.500E-01 0.500 F 0.168 0.461 -26° 30' 19.10" 1.000E-01 0.500 F 0.177 -0.275 o 691 1.12 Yes No
2016CN247 O C H 2016-02-26.21700 1.000E-05 09:38:47.930 1.500E-01 0.500 F 0.168 -0.352 -26° 30' 23.50" 1.000E-01 0.500 F 0.177 -0.364 o 691 1.07 Yes No
2016DZ O C H 2016-02-26.22210 1.000E-05 08:39:39.230 1.500E-01 0.500 F 0.065 0.487 +19° 19' 42.00" 1.000E-01 0.500 F 0.184 -0.117 o 691 1.01 Yes No
2016DZ O C H 2016-02-26.22602 1.000E-05 08:39:39.360 1.500E-01 0.500 F 0.065 0.410 +19° 19' 59.40" 1.000E-01 0.500 F 0.184 -0.649 o 691 1.54 Yes No
2016DZ O C H 2016-02-26.22995 1.000E-05 08:39:39.490 1.500E-01 0.500 F 0.065 0.329 +19° 20' 18.00" 1.000E-01 0.500 F 0.184 -0.022 o 691 0.66 Yes No
2015FJ36 O C H 2016-02-26.23383 1.000E-05 10:25:08.060 1.500E-01 0.500 F 0.127 0.813 -14° 07' 52.70" 1.000E-01 0.500 F -0.099 -0.528 19.8 V 0.70 0.17 o 691 1.97 Yes Yes
2015FJ36 O C H 2016-02-26.23776 1.000E-05 10:25:06.930 1.500E-01 0.500 F 0.127 -0.712 -14° 07' 44.00" 1.000E-01 0.500 F -0.099 0.404 19.8 V 0.70 0.17 o 691 1.67 Yes Yes
2015FJ36 O C H 2016-02-26.24168 1.000E-05 10:25:05.980 1.500E-01 0.500 F 0.127 0.352 -14° 07' 36.70" 1.000E-01 0.500 F -0.099 -0.050 19.9 V 0.70 0.27 o 691 0.73 Yes Yes
2003GA O C H 2016-02-26.24522 1.000E-05 09:46:32.570 1.500E-01 0.500 F 0.053 -0.360 +02° 58' 20.20" 1.000E-01 0.500 F 0.196 -0.022 20.0 V 0.70 0.06 o 691 0.72 Yes Yes
2003GA O C H 2016-02-26.24961 1.000E-05 09:46:32.050 1.500E-01 0.500 F 0.053 -0.078 +02° 58' 24.10" 1.000E-01 0.500 F 0.196 -0.393 20.2 V 0.70 0.26 o 691 0.80 Yes Yes
2003GA O C H 2016-02-26.25400 1.000E-05 09:46:31.500 1.500E-01 0.500 F 0.053 -0.241 +02° 58' 28.80" 1.000E-01 0.500 F 0.196 0.037 20.2 V 0.70 0.26 o 691 0.49 Yes Yes
2016CJ30 O C H 2016-02-26.25708 1.000E-05 09:46:48.530 1.500E-01 0.500 F 0.130 1.590 +11° 30' 30.10" 1.000E-01 0.500 F 0.209 -1.146 o 691 3.86 No No
2016CJ30 O C H 2016-02-26.26008 1.000E-05 09:46:50.340 1.500E-01 0.500 F 0.130 1.090 +11° 30' 21.40" 1.000E-01 0.500 F 0.209 -0.926 o 691 2.91 Yes No
2016CJ30 O C H 2016-02-26.26308 1.000E-05 09:46:52.220 1.500E-01 0.500 F 0.130 1.625 +11° 30' 12.20" 1.000E-01 0.500 F 0.209 -1.198 o 691 3.97 No No
2014EK24 O C H 2016-02-26.26599 1.000E-05 09:03:11.100 1.500E-01 0.500 F -0.014 -0.611 +27° 52' 31.40" 1.000E-01 0.500 F 0.358 -1.082 18.4 V 0.70 0.62 o 691 2.49 Yes Yes
2014EK24 O C H 2016-02-26.26900 1.000E-05 09:03:10.250 1.500E-01 0.500 F -0.014 -0.309 +27° 52' 09.80" 1.000E-01 0.500 F 0.358 -0.304 17.8 V 0.70 0.02 o 691 0.87 Yes Yes
2014EK24 O C H 2016-02-26.27199 1.000E-05 09:03:09.360 1.500E-01 0.500 F 0.023 -0.659 +27° 51' 46.80" 1.000E-01 0.500 F 0.352 -1.041 18.5 V 0.70 0.72 o 691 2.47 Yes Yes
2010GE25 O C H 2016-02-26.27561 1.000E-05 10:09:05.250 1.500E-01 0.500 F 0.098 0.517 -19° 24' 14.00" 1.000E-01 0.500 F -0.036 -0.933 o 691 2.16 Yes No
2010GE25 O C H 2016-02-26.27884 1.000E-05 10:09:04.570 1.500E-01 0.500 F 0.098 0.657 -19° 24' 35.60" 1.000E-01 0.500 F -0.036 -0.623 o 691 1.84 Yes No
2010GE25 O C H 2016-02-26.28207 1.000E-05 10:09:03.860 1.500E-01 0.500 F 0.098 0.376 -19° 24' 57.50" 1.000E-01 0.500 F -0.036 -0.616 o 691 1.46 Yes No
2016DB1 O C H 2016-02-27.10221 1.000E-05 09:19:38.010 1.500E-01 0.500 F 0.080 -0.273 +20° 04' 40.90" 1.000E-01 0.500 F 0.224 -4.328 18.8 V 0.70 0.39 o 691 8.51 No Yes
2016DB1 O C H 2016-02-27.10354 1.000E-05 09:19:37.630 1.500E-01 0.500 F 0.080 -0.266 +20° 03' 26.40" 1.000E-01 0.500 F 0.224 -2.356 18.6 V 0.70 0.19 o 691 4.65 No Yes
2016DB1 O C H 2016-02-27.10487 1.000E-05 09:19:37.320 1.500E-01 0.500 F 0.080 0.753 +20° 02' 09.40" 1.000E-01 0.500 F 0.224 -2.892 18.6 V 0.70 0.19 o 691 5.86 No Yes
2016DT1 O C H 2016-02-27.13476 1.000E-05 10:08:36.170 1.500E-01 0.500 F 0.073 -0.690 +13° 42' 01.50" 1.000E-01 0.500 F 0.254 1.858 20.9 V 0.70 0.09 o 691 3.89 No Yes
2016DT1 O C H 2016-02-27.14260 1.000E-05 10:08:35.680 1.500E-01 0.500 F 0.073 -0.691 +13° 42' 33.90" 1.000E-01 0.500 F 0.254 0.050 20.9 V 0.70 0.09 o 691 1.44 Yes Yes
2016BO1 O C H 2016-02-27.16121 1.000E-05 10:19:47.100 1.500E-01 0.500 F 0.088 0.458 +12° 23' 52.30" 1.000E-01 0.500 F 0.213 1.818 21.0 V 0.70 -0.11 o 691 3.73 No Yes
2016BO1 O C H 2016-02-27.16583 1.000E-05 10:19:46.570 1.500E-01 0.500 F 0.088 -1.048 +12° 23' 58.10" 1.000E-01 0.500 F 0.213 1.067 21.2 V 0.70 0.09 o 691 3.01 Yes Yes
2016BO1 O C H 2016-02-27.17044 1.000E-05 10:19:45.920 1.500E-01 0.500 F 0.088 -4.323 +12° 24' 05.60" 1.000E-01 0.500 F 0.213 2.030 21.3 V 0.70 0.19 o 691 9.50 No Yes
2016CV246 O C H 2016-02-27.22341 1.000E-05 09:37:54.120 1.500E-01 0.500 F 0.075 -0.283 +15° 54' 09.70" 1.000E-01 0.500 F 0.353 0.330 20.9 V 0.70 0.46 o 691 0.88 Yes Yes
2016CV246 O C H 2016-02-27.22664 1.000E-05 09:37:53.270 1.500E-01 0.500 F 0.075 -1.203 +15° 53' 49.50" 1.000E-01 0.500 F 0.353 -0.639 20.6 V 0.70 0.16 o 691 2.75 Yes Yes
2016DK1 O C H 2016-02-27.22882 1.000E-05 09:44:31.450 1.500E-01 0.500 F -0.076 0.099 +13° 07' 59.10" 1.000E-01 0.500 F 0.281 0.033 20.6 V 0.70 -0.14 o 691 0.21 Yes Yes
2016DK1 O C H 2016-02-27.23090 1.000E-05 09:44:33.050 1.500E-01 0.500 F -0.076 0.547 +13° 07' 47.10" 1.000E-01 0.500 F 0.281 0.010 20.5 V 0.70 -0.24 o 691 1.11 Yes Yes
2016DK1 O C H 2016-02-27.23297 1.000E-05 09:44:34.660 1.500E-01 0.500 F -0.076 1.275 +13° 07' 34.00" 1.000E-01 0.500 F 0.281 -1.168 20.4 V 0.70 -0.34 o 691 3.39 No Yes
2016CQ195 O C H 2016-02-27.23628 1.000E-05 10:52:59.280 1.500E-01 0.500 F 0.189 -0.690 -01° 47' 08.50" 1.000E-01 0.500 F 0.104 0.386 21.1 V 0.70 0.32 o 691 1.59 Yes Yes
2016CQ195 O C H 2016-02-27.24090 1.000E-05 10:52:58.640 1.500E-01 0.500 F 0.189 -1.778 -01° 47' 09.00" 1.000E-01 0.500 F 0.104 0.435 21.3 V 0.70 0.52 o 691 3.65 No Yes
2016CQ195 O C H 2016-02-27.24552 1.000E-05 10:52:58.250 1.500E-01 0.500 F 0.189 0.886 -01° 47' 09.70" 1.000E-01 0.500 F 0.104 0.285 20.4 V 0.70 -0.38 o 691 1.87 Yes Yes
2015TY178 O C H 2016-02-27.25589 1.000E-05 10:36:59.390 1.500E-01 0.500 F -0.007 0.211 -11° 20' 00.70" 1.000E-01 0.500 F 0.034 1.385 19.4 V 0.70 -0.03 o 691 2.82 Yes Yes
2015TY178 O C H 2016-02-27.26005 1.000E-05 10:36:59.770 1.500E-01 0.500 F -0.007 0.267 -11° 19' 47.70" 1.000E-01 0.500 F 0.034 0.636 19.6 V 0.70 0.17 o 691 1.39 Yes Yes
2015TY178 O C H 2016-02-27.26420 1.000E-05 10:37:00.130 1.500E-01 0.500 F -0.007 0.053 -11° 19' 34.20" 1.000E-01 0.500 F 0.034 0.416 19.7 V 0.70 0.27 o 691 0.84 Yes Yes
2016CB30 O C H 2016-02-27.26868 1.000E-05 09:25:30.320 1.500E-01 0.500 F 0.094 0.650 +28° 12' 07.60" 1.000E-01 0.500 F 0.180 -0.176 20.5 V 0.70 0.00 o 691 1.36 Yes Yes
2016CB30 O C H 2016-02-27.27330 1.000E-05 09:25:30.790 1.500E-01 0.500 F 0.094 0.248 +28° 12' 02.00" 1.000E-01 0.500 F 0.180 -0.325 20.4 V 0.70 -0.10 o 691 0.83 Yes Yes
2016CB30 O C H 2016-02-27.27791 1.000E-05 09:25:31.260 1.500E-01 0.500 F 0.094 -0.143 +28° 11' 57.20" 1.000E-01 0.500 F 0.180 0.338 20.3 V 0.70 -0.20 o 691 0.74 Yes Yes
2015FJ36 O C H 2016-02-27.28237 1.000E-05 10:20:57.740 1.500E-01 0.500 F 0.187 0.206 -13° 32' 58.00" 1.000E-01 0.500 F -0.019 -0.340 19.6 V 0.70 -0.07 o 691 0.80 Yes Yes
2015FJ36 O C H 2016-02-27.28629 1.000E-05 10:20:56.730 1.500E-01 0.500 F 0.187 -0.223 -13° 32' 49.80" 1.000E-01 0.500 F -0.019 0.105 19.5 V 0.70 -0.17 o 691 0.50 Yes Yes
2015FJ36 O C H 2016-02-27.29022 1.000E-05 10:20:55.730 1.500E-01 0.500 F 0.187 -0.468 -13° 32' 41.90" 1.000E-01 0.500 F -0.019 0.224 20.3 V 0.70 0.63 o 691 1.06 Yes Yes
2003GA O C H 2016-02-27.29472 1.000E-05 09:44:33.350 1.500E-01 0.500 F 0.053 -0.053 +03° 15' 32.60" 1.000E-01 0.500 F 0.196 0.030 20.1 V 0.70 0.15 o 691 0.12 Yes Yes
2003GA O C H 2016-02-27.29933 1.000E-05 09:44:32.780 1.500E-01 0.500 F 0.053 -0.090 +03° 15' 37.20" 1.000E-01 0.500 F 0.196 0.043 20.2 V 0.70 0.25 o 691 0.20 Yes Yes
2003GA O C H 2016-02-27.30395 1.000E-05 09:44:32.200 1.500E-01 0.500 F 0.053 -0.261 +03° 15' 41.90" 1.000E-01 0.500 F 0.196 0.147 20.1 V 0.70 0.14 o 691 0.60 Yes Yes
2016CJ30 O C H 2016-02-27.30692 1.000E-05 09:58:26.540 1.500E-01 0.500 F 0.152 0.666 +10° 36' 44.30" 1.000E-01 0.500 F 0.108 0.039 19.3 V 0.70 0.35 o 691 1.35 Yes Yes
2016CJ30 O C H 2016-02-27.30992 1.000E-05 09:58:28.390 1.500E-01 0.500 F 0.152 0.402 +10° 36' 34.60" 1.000E-01 0.500 F 0.108 -0.175 19.5 V 0.70 0.55 o 691 0.89 Yes Yes
2016CJ30 O C H 2016-02-27.31292 1.000E-05 09:58:30.220 1.500E-01 0.500 F 0.152 -0.161 +10° 36' 25.30" 1.000E-01 0.500 F 0.108 0.021 19.3 V 0.70 0.35 o 691 0.33 Yes Yes
2010GE25 O C H 2016-02-27.31608 1.000E-05 10:05:34.010 1.500E-01 0.500 F 0.044 -0.259 -21° 21' 51.40" 1.000E-01 0.500 F 0.009 0.115 18.7 V 0.70 0.22 o 691 0.57 Yes Yes
2010GE25 O C H 2016-02-27.31954 1.000E-05 10:05:33.240 1.500E-01 0.500 F 0.044 -0.341 -21° 22' 15.20" 1.000E-01 0.500 F 0.009 -0.225 18.8 V 0.70 0.32 o 691 0.83 Yes Yes
2010GE25 O C H 2016-02-27.32300 1.000E-05 10:05:32.480 1.500E-01 0.500 F 0.044 -0.286 -21° 22' 38.50" 1.000E-01 0.500 F 0.009 -0.071 18.7 V 0.70 0.22 o 691 0.60 Yes Yes
Beltrovata O C 2016-02-27.39282 1.000E-05 11:31:31.420 1.500E-01 0.500 F 0.215 -0.431 -04° 28' 16.40" 1.000E-01 0.500 F 0.212 0.103 19.2 V 0.70 -0.07 o 691 0.89 Yes Yes
Beltrovata O C 2016-02-27.41149 1.000E-05 11:31:30.300 1.500E-01 0.500 F 0.215 -0.339 -04° 28' 11.90" 1.000E-01 0.500 F 0.212 -0.403 19.2 V 0.70 -0.07 o 691 1.05 Yes Yes
Beltrovata O C 2016-02-27.43019 1.000E-05 11:31:29.180 1.500E-01 0.500 F 0.215 -0.233 -04° 28' 06.50" 1.000E-01 0.500 F 0.212 -0.025 19.5 V 0.70 0.24 o 691 0.47 Yes Yes
2005JA22 O C 2016-02-27.44958 1.000E-05 11:11:59.550 1.500E-01 0.500 F 0.152 -0.128 +01° 34' 18.80" 1.000E-01 0.500 F 0.153 0.128 18.8 V 0.70 0.10 o 691 0.36 Yes Yes
2005JA22 O C 2016-02-27.46827 1.000E-05 11:11:58.060 1.500E-01 0.500 F 0.152 0.140 +01° 34' 53.70" 1.000E-01 0.500 F 0.153 0.326 18.9 V 0.70 0.20 o 691 0.71 Yes Yes
2005JA22 O C 2016-02-27.48696 1.000E-05 11:11:56.510 1.500E-01 0.500 F 0.152 -0.634 +01° 35' 28.10" 1.000E-01 0.500 F 0.153 0.029 18.9 V 0.70 0.20 o 691 1.27 Yes Yes
2007DY40 O C H 2016-02-28.23225 1.000E-05 10:47:51.090 1.500E-01 0.500 F 0.188 -0.361 +07° 22' 29.40" 1.000E-01 0.500 F 0.236 0.362 20.2 V 0.70 -0.48 o 691 1.03 Yes Yes
2007DY40 O C H 2016-02-28.23687 1.000E-05 10:47:50.530 1.500E-01 0.500 F 0.188 -0.315 +07° 22' 35.00" 1.000E-01 0.500 F 0.236 0.221 20.6 V 0.70 -0.08 o 691 0.78 Yes Yes
2007DY40 O C H 2016-02-28.24148 1.000E-05 10:47:49.980 1.500E-01 0.500 F 0.188 -0.130 +07° 22' 41.20" 1.000E-01 0.500 F 0.236 0.692 20.9 V 0.70 0.22 o 691 1.42 Yes Yes
2016DT1 O C H 2016-02-28.26986 1.000E-05 10:07:31.370 1.500E-01 0.500 F 0.083 0.041 +15° 01' 54.30" 1.000E-01 0.500 F 0.196 -0.496 20.9 V 0.70 -0.05 o 691 1.02 Yes Yes
2000QK25 O C 2016-02-28.26986 1.000E-05 10:04:03.450 1.500E-01 0.500 F 0.098 -0.515 +14° 55' 44.30" 1.000E-01 0.500 F 0.197 -0.189 o 691 1.10 Yes No
2000QK25 O C 2016-02-28.27379 1.000E-05 10:04:03.150 1.500E-01 0.500 F 0.098 -0.603 +14° 55' 47.10" 1.000E-01 0.500 F 0.197 0.340 o 691 1.39 Yes No
2000QK25 O C 2016-02-28.27777 1.000E-05 10:04:02.920 1.500E-01 0.500 F 0.098 0.379 +14° 55' 48.70" 1.000E-01 0.500 F 0.197 -0.358 o 691 1.05 Yes No
2016DT1 O C H 2016-02-28.27777 1.000E-05 10:07:30.930 1.500E-01 0.500 F 0.083 0.872 +15° 02' 25.00" 1.000E-01 0.500 F 0.196 -2.304 21.1 V 0.70 0.15 o 691 4.82 No Yes
2016CB32 O C H 2016-02-28.28115 1.000E-05 10:48:51.990 1.500E-01 0.500 F 0.154 0.593 +06° 01' 25.50" 1.000E-01 0.500 F 0.154 -0.363 20.9 V 0.70 -0.17 o 691 1.40 Yes Yes
2016CB32 O C H 2016-02-28.28577 1.000E-05 10:48:51.570 1.500E-01 0.500 F 0.154 -0.924 +06° 01' 28.50" 1.000E-01 0.500 F 0.154 0.306 21.0 V 0.70 -0.07 o 691 1.95 Yes Yes
2016CB32 O C H 2016-02-28.29038 1.000E-05 10:48:51.340 1.500E-01 0.500 F 0.154 0.384 +06° 01' 30.50" 1.000E-01 0.500 F 0.154 -0.020 20.8 V 0.70 -0.27 o 691 0.77 Yes Yes
2016CY31 O C 2016-02-28.31182 1.000E-05 10:18:47.350 1.500E-01 0.612 F 0.128 0.003 +05° 35' 53.90" 1.000E-01 0.612 F 0.122 -0.011 o 691 0.02 Yes No
2016DV1 O C H 2016-02-28.31182 1.000E-05 10:18:58.570 1.500E-01 0.612 F 0.128 0.048 +05° 32' 02.00" 1.000E-01 0.612 F 0.122 -0.349 18.7 V 0.70 0.35 o 691 0.58 Yes Yes
2016CY31 O C 2016-02-28.31575 1.000E-05 10:18:48.070 1.500E-01 0.612 F 0.128 -1.111 +05° 35' 59.20" 1.000E-01 0.612 F 0.122 0.778 o 691 2.22 Yes No
2016DV1 O C H 2016-02-28.31575 1.000E-05 10:18:57.590 1.500E-01 0.612 F 0.128 -0.238 +05° 32' 11.40" 1.000E-01 0.612 F 0.122 -0.062 18.8 V 0.70 0.45 o 691 0.40 Yes Yes
2016CY31 O C 2016-02-28.31967 1.000E-05 10:18:48.900 1.500E-01 0.612 F 0.128 -0.558 +05° 36' 02.70" 1.000E-01 0.612 F 0.122 -0.219 o 691 0.98 Yes No
2016DV1 O C H 2016-02-28.31967 1.000E-05 10:18:56.620 1.500E-01 0.612 F 0.128 -0.392 +05° 32' 20.70" 1.000E-01 0.612 F 0.122 0.141 18.8 V 0.70 0.45 o 691 0.68 Yes Yes
2016CP247 O C H 2016-02-28.32780 1.000E-05 10:14:20.550 1.500E-01 0.500 F 0.122 0.450 -05° 05' 33.30" 1.000E-01 0.500 F 0.098 -0.212 20.7 V 0.70 -0.17 o 691 1.00 Yes Yes
2016CP247 O C H 2016-02-28.33241 1.000E-05 10:14:21.230 1.500E-01 0.500 F 0.122 -0.694 -05° 05' 29.10" 1.000E-01 0.500 F 0.098 -1.253 21.0 V 0.70 0.13 o 691 2.88 Yes Yes
2016CY31 O C H 2016-02-28.33611 1.000E-05 10:18:52.180 1.500E-01 0.612 F 0.128 -1.307 +05° 36' 21.30" 1.000E-01 0.612 F 0.122 -0.452 20.0 V 0.70 -0.56 o 691 2.27 Yes Yes
2016DV1 O C 2016-02-28.33611 1.000E-05 10:18:52.610 1.500E-01 0.612 F 0.128 -0.020 +05° 32' 57.40" 1.000E-01 0.612 F 0.122 -1.395 18.1 V 0.70 -0.24 o 691 2.29 Yes Yes
2016CY31 O C H 2016-02-28.34050 1.000E-05 10:18:53.210 1.500E-01 0.612 F 0.128 0.769 +05° 36' 26.60" 1.000E-01 0.612 F 0.122 -0.173 20.9 V 0.70 0.34 o 691 1.29 Yes Yes
2016DV1 O C 2016-02-28.34050 1.000E-05 10:18:51.510 1.500E-01 0.612 F 0.128 -0.333 +05° 33' 09.10" 1.000E-01 0.612 F 0.122 0.072 18.4 V 0.70 0.06 o 691 0.56 Yes Yes
2016CY31 O C H 2016-02-28.34489 1.000E-05 10:18:54.220 1.500E-01 0.612 F 0.128 2.534 +05° 36' 31.50" 1.000E-01 0.612 F 0.122 -0.291 20.9 V 0.70 0.34 o 691 4.14 No Yes
2016DV1 O C 2016-02-28.34489 1.000E-05 10:18:50.440 1.500E-01 0.612 F 0.128 -0.194 +05° 33' 19.30" 1.000E-01 0.612 F 0.122 0.028 18.4 V 0.70 0.07 o 691 0.32 Yes Yes
2015XT129 O C 2016-02-28.37383 1.000E-05 11:45:52.220 1.500E-01 0.500 F 0.391 -0.247 +00° 19' 00.90" 1.000E-01 0.500 F 0.124 -0.128 o 691 0.56 Yes No
2000YJ66 O C 2016-02-28.37617 1.000E-05 11:26:19.230 1.500E-01 0.500 F 0.221 -0.007 -01° 59' 04.20" 1.000E-01 0.500 F 0.111 -0.271 o 691 0.54 Yes No
2015XT129 O C 2016-02-28.39251 1.000E-05 11:45:51.710 1.500E-01 0.500 F 0.391 -0.252 +00° 18' 56.70" 1.000E-01 0.500 F 0.124 -0.057 o 691 0.52 Yes No
2000YJ66 O C 2016-02-28.39485 1.000E-05 11:26:18.180 1.500E-01 0.500 F 0.221 -0.159 -01° 58' 59.20" 1.000E-01 0.500 F 0.111 -0.308 o 691 0.69 Yes No
2015XT129 O C 2016-02-28.41120 1.000E-05 11:45:51.220 1.500E-01 0.500 F 0.391 -0.037 +00° 18' 52.40" 1.000E-01 0.500 F 0.124 -0.089 o 691 0.19 Yes No
2000YJ66 O C 2016-02-28.41354 1.000E-05 11:26:17.140 1.500E-01 0.500 F 0.221 -0.163 -01° 58' 53.80" 1.000E-01 0.500 F 0.111 0.049 o 691 0.34 Yes No
2016DV21 O C 2016-02-28.42597 1.000E-05 11:13:20.630 1.500E-01 0.500 F 0.166 0.182 +07° 09' 06.30" 1.000E-01 0.500 F 0.226 -0.166 20.7 V 0.70 -0.01 o 691 0.50 Yes Yes
2016DV21 O C 2016-02-28.44464 1.000E-05 11:13:21.240 1.500E-01 0.500 F 0.166 -0.031 +07° 09' 57.20" 1.000E-01 0.500 F 0.226 0.100 20.5 V 0.70 -0.21 o 691 0.21 Yes Yes
2016DV21 O C 2016-02-28.46333 1.000E-05 11:13:21.840 1.500E-01 0.500 F 0.166 -0.601 +07° 10' 48.10" 1.000E-01 0.500 F 0.226 0.308 20.2 V 0.70 -0.51 o 691 1.36 Yes Yes
2016CT30 O C H 2016-02-29.21826 1.000E-05 05:00:56.210 1.500E-01 0.500 F -0.258 -0.807 +21° 51' 12.70" 1.000E-01 0.500 F 0.186 0.618 o 691 2.08 Yes No
2016CT30 O C H 2016-02-29.22122 1.000E-05 05:00:56.800 1.500E-01 0.500 F -0.258 0.350 +21° 51' 04.40" 1.000E-01 0.500 F 0.186 -1.015 o 691 2.19 Yes No
2008GU20 O C H 2016-02-29.23306 1.000E-05 09:44:50.210 1.500E-01 0.500 F 0.102 1.174 -10° 07' 46.50" 1.000E-01 0.500 F -0.009 -0.523 20.7 V 0.70 -0.42 o 691 2.59 Yes Yes

[1-200] [201-400] [401-600] [601-800] [801-1000] [1001-1200] [1201-1400] [1401-1600] [1601-1800] [1801-2000] [2001-2200] [2201-2400] [2401-2600] [2601-2800] [2801-3000] [3001-3200] [3201-3400] [3401-3600] [3601-3800] [3801-4000] [4001-4200] [4201-4400] [4401-4600] [4601-4800] [4801-5000] [5001-5200] [5201-5400] [5401-5600] [5601-5800] [5801-6000] [6001-6200] [6201-6400] [6401-6600] [6601-6800] [6801-7000] [7001-7200] [7201-7400] [7401-7600] [7601-7800] [7801-8000] [8001-8200] [8201-8400] [8401-8600] [8601-8800] [8801-9000] [9001-9200] [9201-9400] [9401-9600] [9601-9800] [9801-10000] [10001-10200] [10201-10400] [10401-10600] [10601-10800] [10801-11000] [11001-11200] [11201-11400] [11401-11600] [11601-11800] [11801-12000] [12001-12200] [12201-12400] [12401-12600] [12601-12800] [12801-13000] [13001-13200] [13201-13400] [13401-13600] [13601-13800] [13801-14000] [14001-14200] [14201-14400] [14401-14600] [14601-14800] [14801-15000] [15001-15200] [15201-15400] [15401-15600] [15601-15800] [15801-16000] [16001-16200] [16201-16400] [16401-16600] [16601-16800] [16801-17000] [17001-17200] [17201-17400] [17401-17600] [17601-17800] [17801-18000] [18001-18200] [18201-18400] [18401-18600] [18601-18800] [18801-19000] [19001-19200] [19201-19400] [19401-19600] [19601-19800] [19801-20000] [20001-20200] [20201-20400] [20401-20600] [20601-20800] [20801-21000] [21001-21200] [21201-21400] [21401-21600] [21601-21800] [21801-22000] [22001-22200] [22201-22400] [22401-22600] [22601-22800] [22801-23000] [23001-23200] [23201-23400] [23401-23600] [23601-23800] [23801-24000] [24001-24200] [24201-24400] [24401-24600] [24601-24800] [24801-25000] [25001-25200] [25201-25400] [25401-25600] [25601-25800] [25801-26000] [26001-26200] [26201-26400] [26401-26600] [26601-26800] [26801-27000] [27001-27200] [27201-27400] [27401-27600] [27601-27800] [27801-28000] [28001-28200] [28201-28400] [28401-28600] [28601-28800] [28801-29000] [29001-29200] [29201-29400] [29401-29600] [29601-29800] [29801-30000] [30001-30200] [30201-30400] [30401-30600] [30601-30800] [30801-31000] [31001-31200] [31201-31400] [31401-31600] [31601-31800] [31801-32000] [32001-32200] [32201-32400] [32401-32600] [32601-32800] [32801-33000] [33001-33200] [33201-33400] [33401-33600] [33601-33800] [33801-34000] [34001-34200] [34201-34400] [34401-34600] [34601-34800] [34801-35000] [35001-35200] [35201-35400] [35401-35600] [35601-35800] [35801-36000] [36001-36200] [36201-36400] [36401-36600] [36601-36800] [36801-37000] [37001-37200] [37201-37400] [37401-37600] [37601-37800] [37801-38000] [38001-38200] [38201-38400] [38401-38600] [38601-38800] [38801-39000] [39001-39200] [39201-39400] [39401-39600] [39601-39800] [39801-40000] [40001-40200] [40201-40400] [40401-40600] [40601-40800] [40801-41000] [41001-41200] [41201-41400] [41401-41600] [41601-41800] [41801-42000] [42001-42200] [42201-42400] [42401-42600] [42601-42800] [42801-43000] [43001-43200] [43201-43400] [43401-43600] [43601-43800] [43801-44000] [44001-44200] [44201-44400] [44401-44600] [44601-44800] [44801-45000] [45001-45200] [45201-45400] [45401-45600] [45601-45800] [45801-46000] [46001-46200] [46201-46400] [46401-46600] [46601-46800] [46801-47000] [47001-47200] [47201-47400] [47401-47600] [47601-47800] [47801-48000] [48001-48200] [48201-48400] [48401-48600] [48601-48800] [48801-49000] [49001-49200] [49201-49400] [49401-49600] [49601-49800] [49801-50000] [50001-50200] [50201-50388]